createdAt,value
2019-03-08T00:01:46.066Z,18.40
2019-03-08T00:04:22.416Z,13.18
2019-03-08T00:06:50.975Z,17.05
2019-03-08T00:09:21.402Z,14.53
2019-03-08T00:11:49.852Z,16.60
2019-03-08T00:14:18.465Z,19.10
2019-03-08T00:16:51.899Z,15.50
2019-03-08T00:19:30.584Z,14.20
2019-03-08T00:21:56.673Z,17.20
2019-03-08T00:24:41.296Z,11.45
2019-03-08T00:27:15.608Z,14.83
2019-03-08T00:29:45.882Z,16.55
2019-03-08T00:32:21.898Z,16.55
2019-03-08T00:35:02.192Z,20.40
2019-03-08T00:37:38.160Z,15.43
2019-03-08T00:40:14.348Z,21.17
2019-03-08T00:42:49.324Z,17.60
2019-03-08T00:45:22.498Z,15.88
2019-03-08T00:47:55.474Z,17.55
2019-03-08T00:50:29.848Z,10.98
2019-03-08T00:53:00.090Z,21.57
2019-03-08T00:55:37.636Z,18.27
2019-03-08T00:58:09.124Z,23.87
2019-03-08T01:00:44.158Z,23.57
2019-03-08T01:03:13.748Z,19.70
2019-03-08T01:06:09.735Z,17.67
2019-03-08T01:08:24.602Z,20.32
2019-03-08T01:11:14.155Z,29.65
2019-03-08T01:16:38.646Z,19.23
2019-03-08T01:19:20.602Z,18.05
2019-03-08T01:21:54.393Z,20.35
2019-03-08T01:24:30.859Z,18.57
2019-03-08T01:27:14.951Z,16.57
2019-03-08T01:29:39.342Z,21.27
2019-03-08T01:32:13.093Z,15.95
2019-03-08T01:34:48.438Z,21.40
2019-03-08T01:37:23.079Z,17.25
2019-03-08T01:39:56.170Z,20.00
2019-03-08T01:42:26.144Z,23.00
2019-03-08T01:44:55.438Z,22.25
2019-03-08T01:47:25.735Z,17.67
2019-03-08T01:50:00.037Z,22.10
2019-03-08T01:52:28.693Z,14.95
2019-03-08T01:54:57.354Z,16.25
2019-03-08T01:57:25.983Z,16.15
2019-03-08T01:59:54.634Z,15.48
2019-03-08T02:02:23.098Z,16.73
2019-03-08T02:04:51.642Z,13.62
2019-03-08T02:07:20.294Z,16.02
2019-03-08T02:09:49.249Z,21.95
2019-03-08T02:12:17.745Z,17.62
2019-03-08T02:14:47.812Z,14.68
2019-03-08T02:17:16.259Z,19.65
2019-03-08T02:19:44.773Z,17.92
2019-03-08T02:22:13.323Z,19.98
2019-03-08T02:24:42.270Z,16.70
2019-03-08T02:27:10.774Z,17.85
2019-03-08T02:29:39.413Z,19.82
2019-03-08T02:32:10.553Z,15.48
2019-03-08T02:34:48.050Z,19.57
2019-03-08T02:37:26.829Z,16.23
2019-03-08T02:39:57.751Z,15.05
2019-03-08T02:42:26.397Z,20.35
2019-03-08T02:44:55.012Z,15.23
2019-03-08T02:47:23.639Z,13.05
2019-03-08T02:49:55.269Z,14.60
2019-03-08T02:52:27.972Z,17.85
2019-03-08T02:54:56.590Z,11.97
2019-03-08T02:57:25.130Z,14.55
2019-03-08T02:59:53.702Z,16.80
2019-03-08T03:02:22.473Z,12.05
2019-03-08T03:04:50.908Z,11.22
2019-03-08T03:07:19.427Z,10.55
2019-03-08T03:09:49.963Z,8.30
2019-03-08T03:12:22.743Z,6.22
2019-03-08T03:14:53.948Z,4.37
2019-03-08T03:17:22.468Z,8.58
2019-03-08T03:19:51.234Z,5.72
2019-03-08T03:22:19.930Z,4.65
2019-03-08T03:24:48.448Z,4.87
2019-03-08T03:27:16.961Z,4.10
2019-03-08T03:29:45.597Z,5.60
2019-03-08T03:32:14.133Z,3.50
2019-03-08T03:34:42.862Z,3.77
2019-03-08T03:37:11.406Z,3.25
2019-03-08T03:39:39.926Z,3.15
2019-03-08T03:42:08.522Z,2.35
2019-03-08T03:44:37.324Z,3.35
2019-03-08T03:47:05.831Z,4.40
2019-03-08T03:49:34.317Z,3.52
2019-03-08T03:52:02.905Z,3.70
2019-03-08T03:54:31.531Z,4.30
2019-03-08T03:57:00.109Z,3.47
2019-03-08T03:59:28.931Z,3.15
2019-03-08T04:01:59.061Z,2.50
2019-03-08T04:04:27.658Z,1.77
2019-03-08T04:06:56.360Z,2.15
2019-03-08T04:09:24.761Z,1.35
2019-03-08T04:11:53.292Z,3.30
2019-03-08T04:14:22.179Z,2.35
2019-03-08T04:16:50.833Z,3.98
2019-03-08T04:19:19.319Z,1.90
2019-03-08T04:21:47.927Z,4.25
2019-03-08T04:24:16.302Z,2.33
2019-03-08T04:26:45.028Z,4.00
2019-03-08T04:29:13.867Z,1.40
2019-03-08T04:31:42.401Z,3.15
2019-03-08T04:34:11.042Z,2.47
2019-03-08T04:36:39.673Z,1.60
2019-03-08T04:39:10.803Z,2.65
2019-03-08T04:41:39.246Z,3.35
2019-03-08T04:44:07.884Z,3.37
2019-03-08T04:46:36.467Z,2.35
2019-03-08T04:49:05.024Z,4.42
2019-03-08T04:51:33.644Z,3.52
2019-03-08T04:54:02.149Z,4.85
2019-03-08T04:56:30.585Z,3.20
2019-03-08T04:58:59.382Z,5.53
2019-03-08T05:01:27.855Z,5.40
2019-03-08T05:03:56.418Z,4.30
2019-03-08T05:06:25.096Z,4.85
2019-03-08T05:08:53.519Z,3.80
2019-03-08T05:11:22.031Z,3.72
2019-03-08T05:13:50.910Z,4.15
2019-03-08T05:16:19.442Z,5.12
2019-03-08T05:18:47.988Z,3.27
2019-03-08T05:21:16.512Z,3.10
2019-03-08T05:23:44.937Z,2.65
2019-03-08T05:26:13.381Z,2.42
2019-03-08T05:28:42.182Z,4.20
2019-03-08T05:31:10.773Z,5.35
2019-03-08T05:33:39.215Z,3.25
2019-03-08T05:36:07.752Z,5.22
2019-03-08T05:38:36.178Z,5.20
2019-03-08T05:41:04.669Z,7.10
2019-03-08T05:43:33.537Z,2.70
2019-03-08T05:46:01.991Z,5.87
2019-03-08T05:48:30.502Z,5.67
2019-03-08T05:50:59.016Z,3.67
2019-03-08T05:53:27.724Z,5.72
2019-03-08T05:55:56.271Z,4.60
2019-03-08T05:58:25.070Z,7.17
2019-03-08T06:00:53.675Z,6.62
2019-03-08T06:03:22.161Z,8.90
2019-03-08T06:05:50.773Z,4.78
2019-03-08T06:08:19.270Z,7.97
2019-03-08T06:10:47.715Z,6.55
2019-03-08T06:13:16.366Z,8.95
2019-03-08T06:15:45.046Z,8.38
2019-03-08T06:18:13.682Z,8.75
2019-03-08T06:20:42.166Z,8.90
2019-03-08T06:23:10.622Z,15.20
2019-03-08T06:25:39.134Z,11.03
2019-03-08T06:28:07.798Z,11.35
2019-03-08T06:30:36.625Z,11.28
2019-03-08T06:33:05.187Z,12.23
2019-03-08T06:35:33.760Z,12.85
2019-03-08T06:38:02.288Z,12.25
2019-03-08T06:40:30.791Z,16.30
2019-03-08T06:42:59.525Z,15.40
2019-03-08T06:45:28.571Z,11.03
2019-03-08T06:47:57.009Z,11.50
2019-03-08T06:50:25.579Z,18.00
2019-03-08T06:52:54.037Z,10.65
2019-03-08T06:55:22.566Z,15.25
2019-03-08T06:57:59.777Z,14.07
2019-03-08T07:00:41.833Z,13.80
2019-03-08T07:03:10.664Z,13.00
2019-03-08T07:05:39.146Z,12.82
2019-03-08T07:08:07.826Z,14.63
2019-03-08T07:10:36.526Z,12.47
2019-03-08T07:13:05.282Z,12.30
2019-03-08T07:15:33.775Z,11.97
2019-03-08T07:18:11.706Z,14.80
2019-03-08T07:20:34.022Z,17.65
2019-03-08T07:23:11.148Z,12.05
2019-03-08T07:25:51.096Z,14.78
2019-03-08T07:28:33.900Z,16.87
2019-03-08T07:31:20.582Z,14.73
2019-03-08T07:33:59.997Z,14.60
2019-03-08T07:36:30.095Z,13.72
2019-03-08T07:39:15.501Z,15.85
2019-03-08T07:42:01.943Z,19.62
2019-03-08T07:44:38.268Z,15.70
2019-03-08T07:47:17.437Z,13.10
2019-03-08T07:49:53.422Z,17.37
2019-03-08T07:52:39.582Z,12.23
2019-03-08T07:55:25.714Z,14.80
2019-03-08T07:57:55.816Z,18.10
2019-03-08T08:00:25.894Z,20.90
2019-03-08T08:03:03.288Z,16.80
2019-03-08T08:05:27.856Z,14.90
2019-03-08T08:08:01.122Z,11.48
2019-03-08T08:10:31.304Z,13.50
2019-03-08T08:13:18.030Z,16.95
2019-03-08T08:15:52.171Z,13.00
2019-03-08T08:18:28.322Z,14.95
2019-03-08T08:21:04.614Z,12.13
2019-03-08T08:23:37.390Z,14.65
2019-03-08T08:26:11.137Z,10.50
2019-03-08T08:28:49.598Z,15.55
2019-03-08T08:31:13.183Z,15.75
2019-03-08T08:33:43.270Z,12.80
2019-03-08T08:36:14.184Z,15.03
2019-03-08T08:38:50.281Z,12.45
2019-03-08T08:41:29.141Z,14.80
2019-03-08T08:44:09.796Z,11.65
2019-03-08T08:46:52.359Z,12.37
2019-03-08T08:49:25.882Z,17.95
2019-03-08T08:54:31.538Z,14.90
2019-03-08T08:57:01.993Z,15.98
2019-03-08T08:59:41.222Z,17.92
2019-03-08T09:02:11.318Z,17.67
2019-03-08T09:04:44.026Z,15.13
2019-03-08T09:07:23.678Z,11.05
2019-03-08T09:10:08.697Z,15.50
2019-03-08T09:12:38.843Z,16.52
2019-03-08T09:15:12.067Z,18.82
2019-03-08T09:17:43.497Z,15.38
2019-03-08T09:20:25.860Z,10.03
2019-03-08T09:23:14.297Z,13.45
2019-03-08T09:25:44.386Z,15.00
2019-03-08T09:28:17.162Z,11.33
2019-03-08T09:30:47.319Z,14.47
2019-03-08T09:33:23.077Z,11.12
2019-03-08T09:35:53.465Z,12.85
2019-03-08T09:38:23.584Z,12.28
2019-03-08T09:40:59.718Z,11.18
2019-03-08T09:43:44.657Z,15.10
2019-03-08T09:46:32.985Z,19.65
2019-03-08T09:49:19.641Z,11.40
2019-03-08T09:51:56.293Z,15.38
2019-03-08T09:54:42.851Z,14.28
2019-03-08T09:57:13.170Z,9.58
2019-03-08T09:59:46.218Z,9.25
2019-03-08T10:02:32.551Z,8.98
2019-03-08T10:05:02.711Z,9.63
2019-03-08T10:07:32.856Z,14.80
2019-03-08T10:10:05.635Z,11.35
2019-03-08T10:12:53.706Z,15.98
2019-03-08T10:15:29.558Z,14.05
2019-03-08T10:18:02.205Z,20.97
2019-03-08T10:20:35.287Z,8.18
2019-03-08T10:23:19.714Z,11.65
2019-03-08T10:25:46.184Z,18.70
2019-03-08T10:28:32.746Z,13.55
2019-03-08T10:31:18.067Z,6.83
2019-03-08T10:34:04.864Z,8.93
2019-03-08T10:36:44.301Z,12.15
2019-03-08T10:39:32.889Z,9.78
2019-03-08T10:42:03.022Z,9.25
2019-03-08T10:44:36.003Z,16.02
2019-03-08T10:47:06.208Z,10.93
2019-03-08T10:49:36.577Z,11.30
2019-03-08T10:52:17.392Z,7.42
2019-03-08T10:54:41.107Z,11.70
2019-03-08T10:57:17.154Z,10.43
2019-03-08T10:59:47.380Z,10.35
2019-03-08T11:02:26.513Z,8.53
2019-03-08T11:05:02.893Z,10.68
2019-03-08T11:07:42.110Z,6.72
2019-03-08T11:10:16.538Z,6.03
2019-03-08T11:12:52.737Z,7.58
2019-03-08T11:15:28.567Z,11.00
2019-03-08T11:18:16.210Z,10.30
2019-03-08T11:20:46.534Z,14.75
2019-03-08T11:23:32.060Z,13.10
2019-03-08T11:26:11.223Z,13.78
2019-03-08T11:28:47.120Z,15.23
2019-03-08T11:31:34.800Z,24.72
2019-03-08T11:34:07.444Z,10.32
2019-03-08T11:36:37.695Z,9.05
2019-03-08T11:39:16.028Z,8.43
2019-03-08T11:41:46.248Z,10.63
2019-03-08T11:44:16.333Z,5.97
2019-03-08T11:46:46.495Z,11.25
2019-03-08T11:49:16.632Z,6.40
2019-03-08T11:51:47.035Z,13.03
2019-03-08T11:54:17.249Z,8.85
2019-03-08T11:56:56.619Z,13.75
2019-03-08T11:59:30.417Z,9.73
2019-03-08T12:02:03.593Z,10.08
2019-03-08T12:04:48.909Z,14.23
2019-03-08T12:07:24.931Z,8.93
2019-03-08T12:10:00.904Z,11.53
2019-03-08T12:12:36.858Z,11.38
2019-03-08T12:15:16.031Z,10.78
2019-03-08T12:18:01.464Z,11.70
2019-03-08T12:20:34.158Z,9.33
2019-03-08T12:23:16.627Z,10.40
2019-03-08T12:25:46.930Z,16.05
2019-03-08T12:28:23.110Z,13.93
2019-03-08T12:31:09.242Z,9.10
2019-03-08T12:33:57.787Z,6.50
2019-03-08T12:36:46.085Z,8.10
2019-03-08T12:39:18.885Z,12.98
2019-03-08T12:41:49.137Z,6.50
2019-03-08T12:44:19.571Z,8.88
2019-03-08T12:46:49.717Z,15.90
2019-03-08T12:49:28.669Z,9.58
2019-03-08T12:51:58.981Z,9.85
2019-03-08T12:54:44.136Z,10.10
2019-03-08T12:57:17.295Z,7.62
2019-03-08T13:00:03.786Z,7.85
2019-03-08T13:02:39.575Z,8.50
2019-03-08T13:05:12.265Z,9.55
2019-03-08T13:07:45.551Z,7.55
2019-03-08T13:12:43.646Z,10.68
2019-03-08T13:15:14.671Z,13.15
2019-03-08T13:17:43.246Z,6.95
2019-03-08T13:20:14.703Z,9.13
2019-03-08T13:22:43.280Z,10.53
2019-03-08T13:25:12.204Z,9.23
2019-03-08T13:27:40.707Z,9.60
2019-03-08T13:30:12.531Z,8.23
2019-03-08T13:32:41.106Z,11.50
2019-03-08T13:35:12.605Z,8.23
2019-03-08T13:37:41.293Z,10.08
2019-03-08T13:40:13.101Z,6.58
2019-03-08T13:42:41.620Z,6.10
2019-03-08T13:45:13.425Z,14.23
2019-03-08T13:47:41.927Z,7.03
2019-03-08T13:50:12.710Z,5.12
2019-03-08T13:52:41.432Z,10.70
2019-03-08T13:55:15.471Z,8.65
2019-03-08T13:57:43.940Z,7.15
2019-03-08T14:00:15.676Z,10.00
2019-03-08T14:02:44.291Z,8.28
2019-03-08T14:05:14.205Z,9.85
2019-03-08T14:07:42.872Z,7.53
2019-03-08T14:10:14.592Z,8.03
2019-03-08T14:12:43.243Z,8.03
2019-03-08T14:15:17.974Z,8.90
2019-03-08T14:17:46.483Z,6.25
2019-03-08T14:20:26.371Z,9.98
2019-03-08T14:22:54.897Z,11.05
2019-03-08T14:25:23.477Z,9.65
2019-03-08T14:27:52.076Z,9.73
2019-03-08T14:30:23.324Z,6.45
2019-03-08T14:32:51.811Z,7.33
2019-03-08T14:35:20.541Z,11.53
2019-03-08T14:37:52.395Z,6.45
2019-03-08T14:40:30.097Z,6.10
2019-03-08T14:43:18.755Z,10.48
2019-03-08T14:46:00.711Z,11.88
2019-03-08T14:48:29.227Z,9.13
2019-03-08T14:50:58.116Z,4.00
2019-03-08T14:53:28.445Z,7.97
2019-03-08T14:55:59.076Z,9.18
2019-03-08T14:58:27.221Z,7.20
2019-03-08T15:00:55.774Z,9.20
2019-03-08T15:03:24.845Z,6.67
2019-03-08T15:05:54.862Z,8.83
2019-03-08T15:08:23.782Z,9.23
2019-03-08T15:10:52.281Z,6.55
2019-03-08T15:13:24.208Z,6.67
2019-03-08T15:15:51.173Z,7.42
2019-03-08T15:18:19.777Z,7.05
2019-03-08T15:20:48.351Z,8.33
2019-03-08T15:23:17.275Z,8.43
2019-03-08T15:25:49.064Z,4.95
2019-03-08T15:28:16.840Z,9.73
2019-03-08T15:30:45.825Z,7.92
2019-03-08T15:33:14.468Z,7.20
2019-03-08T15:35:43.045Z,8.83
2019-03-08T15:38:11.612Z,8.53
2019-03-08T15:40:40.051Z,9.33
2019-03-08T15:43:09.689Z,9.28
2019-03-08T15:45:40.106Z,8.50
2019-03-08T15:48:11.003Z,9.20
2019-03-08T15:50:39.072Z,12.58
2019-03-08T15:53:07.731Z,14.40
2019-03-08T15:55:37.795Z,9.10
2019-03-08T15:58:06.291Z,11.55
2019-03-08T16:00:36.418Z,15.38
2019-03-08T16:03:04.866Z,9.88
2019-03-08T16:05:33.384Z,11.25
2019-03-08T16:08:03.796Z,9.53
2019-03-08T16:10:33.638Z,14.30
2019-03-08T16:13:02.851Z,10.38
2019-03-08T16:15:31.661Z,14.23
2019-03-08T16:18:00.282Z,16.65
2019-03-08T16:20:28.857Z,12.00
2019-03-08T16:22:57.693Z,10.30
2019-03-08T16:25:26.204Z,13.43
2019-03-08T16:27:54.714Z,9.83
2019-03-08T16:30:30.711Z,18.30
2019-03-08T16:33:04.050Z,10.75
2019-03-08T16:35:50.707Z,14.68
2019-03-08T16:38:38.916Z,10.72
2019-03-08T16:41:09.243Z,13.03
2019-03-08T16:43:42.181Z,12.47
2019-03-08T16:46:19.882Z,16.12
2019-03-08T16:48:50.077Z,17.02
2019-03-08T16:51:20.200Z,13.38
2019-03-08T16:53:56.212Z,12.78
2019-03-08T16:56:26.286Z,18.55
2019-03-08T16:58:56.367Z,11.85
2019-03-08T17:01:26.913Z,11.97
2019-03-08T17:03:57.048Z,18.62
2019-03-08T17:06:29.298Z,22.17
2019-03-08T17:09:08.154Z,16.93
2019-03-08T17:11:47.355Z,13.38
2019-03-08T17:14:34.111Z,10.00
2019-03-08T17:17:06.702Z,16.23
2019-03-08T17:19:39.348Z,14.80
2019-03-08T17:22:09.450Z,14.63
2019-03-08T17:24:51.800Z,11.45
2019-03-08T17:27:24.496Z,12.25
2019-03-08T17:30:05.492Z,16.95
2019-03-08T17:32:35.388Z,12.55
2019-03-08T17:35:26.419Z,14.93
2019-03-08T17:38:02.971Z,17.30
2019-03-08T17:40:42.198Z,16.85
2019-03-08T17:43:12.373Z,15.75
2019-03-08T17:45:54.850Z,18.92
2019-03-08T17:48:41.126Z,15.65
2019-03-08T17:51:23.269Z,16.40
2019-03-08T17:54:08.349Z,15.88
2019-03-08T17:56:44.623Z,17.45
2019-03-08T17:59:23.782Z,13.68
2019-03-08T18:02:02.857Z,15.53
2019-03-08T18:04:32.994Z,16.50
2019-03-08T18:07:18.318Z,16.37
2019-03-08T18:09:57.265Z,19.42
2019-03-08T18:12:45.580Z,15.43
2019-03-08T18:15:15.812Z,17.07
2019-03-08T18:17:48.506Z,21.87
2019-03-08T18:20:21.584Z,17.52
2019-03-08T18:22:54.631Z,14.03
2019-03-08T18:25:24.863Z,15.00
2019-03-08T18:28:07.214Z,17.73
2019-03-08T18:30:44.899Z,12.18
2019-03-08T18:33:33.270Z,12.73
2019-03-08T18:36:06.844Z,21.35
2019-03-08T18:38:49.468Z,16.87
2019-03-08T18:41:32.618Z,15.93
2019-03-08T18:44:10.670Z,20.35
2019-03-08T18:46:59.137Z,17.77
2019-03-08T18:49:47.175Z,17.17
2019-03-08T18:52:22.946Z,18.75
2019-03-08T18:55:07.998Z,16.80
2019-03-08T18:57:49.953Z,17.80
2019-03-08T19:00:20.455Z,20.70
2019-03-08T19:02:50.665Z,17.98
2019-03-08T19:05:23.423Z,24.72
2019-03-08T19:07:56.300Z,22.60
2019-03-08T19:10:32.479Z,15.48
2019-03-08T19:13:08.408Z,19.20
2019-03-08T19:15:38.756Z,19.95
2019-03-08T19:18:08.951Z,17.40
2019-03-08T19:20:55.687Z,18.65
2019-03-08T19:23:32.034Z,17.37
2019-03-08T19:26:03.390Z,19.87
2019-03-08T19:28:33.809Z,17.80
2019-03-08T19:31:10.581Z,18.02
2019-03-08T19:33:40.764Z,18.90
2019-03-08T19:36:10.845Z,20.02
2019-03-08T19:38:43.545Z,15.88
2019-03-08T19:41:16.154Z,20.25
2019-03-08T19:44:04.355Z,17.25
2019-03-08T19:46:37.120Z,24.52
2019-03-08T19:49:07.436Z,20.97
2019-03-08T19:51:49.521Z,19.15
2019-03-08T19:54:22.500Z,15.58
2019-03-08T19:57:01.703Z,12.25
2019-03-08T19:59:37.749Z,17.90
2019-03-08T20:02:16.866Z,18.37
2019-03-08T20:05:02.295Z,18.23
2019-03-08T20:07:35.302Z,15.95
2019-03-08T20:10:07.640Z,15.23
2019-03-08T20:12:55.164Z,16.32
2019-03-08T20:15:43.069Z,20.77
2019-03-08T20:18:19.144Z,11.10
2019-03-08T20:20:52.935Z,11.70
2019-03-08T20:23:31.691Z,18.15
2019-03-08T20:26:18.404Z,12.40
2019-03-08T20:29:03.917Z,12.10
2019-03-08T20:31:34.136Z,10.95
2019-03-08T20:34:04.224Z,12.03
2019-03-08T20:36:37.111Z,13.15
2019-03-08T20:39:25.878Z,9.60
2019-03-08T20:41:56.135Z,8.90
2019-03-08T20:44:26.395Z,14.20
2019-03-08T20:47:08.594Z,9.28
2019-03-08T20:49:37.088Z,12.37
2019-03-08T20:52:05.616Z,7.42
2019-03-08T20:54:35.977Z,9.45
2019-03-08T20:57:11.687Z,8.15
2019-03-08T20:59:40.445Z,8.10
2019-03-08T21:02:09.072Z,7.33
2019-03-08T21:04:41.919Z,8.98
2019-03-08T21:07:10.569Z,7.67
2019-03-08T21:09:39.145Z,7.20
2019-03-08T21:12:13.495Z,6.00
2019-03-08T21:17:34.330Z,7.58
2019-03-08T21:20:08.939Z,8.98
2019-03-08T21:22:41.389Z,8.95
2019-03-08T21:25:18.890Z,9.98
2019-03-08T21:27:52.061Z,12.10
2019-03-08T21:30:33.834Z,12.90
2019-03-08T21:33:22.760Z,19.48
2019-03-08T21:38:30.248Z,14.63
2019-03-08T21:41:04.431Z,12.43
2019-03-08T21:43:36.968Z,12.25
2019-03-08T21:46:16.375Z,8.50
2019-03-08T21:48:49.123Z,13.55
2019-03-08T21:54:18.115Z,10.72
2019-03-08T21:56:57.351Z,11.28
2019-03-08T22:02:27.233Z,11.08
2019-03-08T22:04:59.986Z,12.85
2019-03-08T22:07:34.486Z,10.67
2019-03-08T22:10:06.636Z,11.55
2019-03-08T22:12:57.438Z,10.13
2019-03-08T22:15:29.716Z,11.65
2019-03-08T22:18:03.370Z,9.53
2019-03-08T22:20:38.535Z,10.98
2019-03-08T22:23:08.775Z,9.38
2019-03-08T22:25:37.806Z,11.43
2019-03-08T22:28:07.084Z,12.00
2019-03-08T22:30:37.017Z,10.98
2019-03-08T22:33:05.959Z,6.50
2019-03-08T22:35:35.657Z,10.93
2019-03-08T22:38:06.575Z,14.15
2019-03-08T22:40:37.300Z,11.78
2019-03-08T22:43:06.795Z,11.68
2019-03-08T22:45:36.264Z,12.98
2019-03-08T22:48:06.272Z,11.12
2019-03-08T22:50:36.668Z,9.10
2019-03-08T22:53:05.783Z,11.78
2019-03-08T22:55:34.823Z,14.20
2019-03-08T22:58:03.428Z,10.93
2019-03-08T23:00:54.277Z,13.25
2019-03-08T23:03:24.351Z,9.05
2019-03-08T23:05:53.066Z,11.57
2019-03-08T23:08:21.727Z,11.22
2019-03-08T23:10:50.273Z,14.78
2019-03-08T23:13:27.631Z,11.70
2019-03-08T23:15:56.258Z,15.35
2019-03-08T23:18:24.914Z,13.78
2019-03-08T23:20:53.479Z,9.30
2019-03-08T23:23:24.453Z,11.75
2019-03-08T23:25:53.537Z,10.38
2019-03-08T23:28:36.549Z,10.72
2019-03-08T23:31:29.445Z,7.85
2019-03-08T23:33:58.211Z,16.87
2019-03-08T23:36:26.895Z,12.63
2019-03-08T23:38:58.181Z,9.93
2019-03-08T23:41:26.939Z,13.03
2019-03-08T23:43:55.619Z,12.18
2019-03-08T23:46:24.278Z,11.15
2019-03-08T23:48:52.918Z,11.73
2019-03-08T23:51:22.036Z,9.40
2019-03-08T23:53:50.812Z,14.63
2019-03-08T23:56:19.391Z,10.68
2019-03-08T23:58:47.905Z,9.23
